ADDS METAR Data INFO
IDs: Format: Raw Decoded Include TAF

Data at: 0604 UTC 25 Jun 2018

KEVW 250553Z AUTO 09004KT 10SM CLR 13/01 A3026 RMK AO2 SLP164 T01330006 10217 20133 51012
KEVW 250453Z AUTO 32003KT 10SM CLR 15/00 A3025 RMK AO2 SLP166 T01500000
KEVW 250353Z AUTO 28005KT 10SM CLR 15/M01 A3024 RMK AO2 SLP163 T01501011
KEVW 250253Z AUTO 30009KT 10SM CLR 17/02 A3021 RMK AO2 SLP154 T01670022 53001
KEVW 250153Z AUTO 26009KT 10SM CLR 19/03 A3021 RMK AO2 SLP152 T01940033
KEVW 250053Z AUTO 24010G17KT 10SM CLR 21/03 A3020 RMK AO2 SLP151 T02060028
KEVW 242353Z AUTO 28008KT 10SM CLR 22/03 A3021 RMK AO2 SLP153 T02170028 10228 20172 57002
KEVW 242253Z AUTO 26009KT 10SM BKN085 22/03 A3021 RMK AO2 SLP152 T02220033
KEVW 242153Z AUTO 10SM BKN070 20/03 A3021 RMK AO2 SLP157 T02000028
KEVW 242053Z AUTO 22007KT 190V280 10SM BKN065 22/03 A3022 RMK AO2 SLP151 T02170033 58004
KEVW 241953Z AUTO 35004G17KT 10SM BKN070 19/02 A3023 RMK AO2 SLP159 T01890022
KEVW 241853Z AUTO 04007G15KT 360V060 10SM CLR 19/01 A3023 RMK AO2 SLP154 T01940011
KEVW 241753Z AUTO VRB03KT 10SM CLR 17/01 A3023 RMK AO2 SLP164 T01720006 10178 20067 53001
KEVW 241653Z AUTO VRB03KT 10SM CLR 15/03 A3023 RMK AO2 SLP165 T01500028
KEVW 241553Z AUTO VRB04KT 10SM CLR 14/03 A3023 RMK AO2 SLP168 T01390033
KEVW 241453Z AUTO 00000KT 10SM CLR 12/04 A3023 RMK AO2 SLP165 T01220044 53014
KEVW 241353Z AUTO 00000KT 10SM CLR 09/04 A3021 RMK AO2 SLP154 T00890039
KEVW 241253Z AUTO 00000KT 10SM FEW080 SCT090 08/03 A3019 RMK AO2 SLP147 T00780028
KEVW 241153Z AUTO 21004KT 10SM FEW085 BKN120 07/03 A3018 RMK AO2 SLP142 T00720028 10111 20061 53008
KEVW 241053Z AUTO 00000KT 10SM FEW090 08/02 A3016 RMK AO2 SLP137 T00780022
KEVW 240953Z AUTO 17005KT 10SM BKN095 07/02 A3015 RMK AO2 SLP130 T00720022
KEVW 240853Z AUTO 36004KT 10SM FEW095 09/03 A3015 RMK AO2 SLP124 T00890028 50001
KEVW 240753Z AUTO 36005KT 10SM CLR 09/03 A3015 RMK AO2 SLP126 T00940028
KEVW 240653Z AUTO 02008KT 10SM CLR 11/02 A3015 RMK AO2 SLP120 T01110022 402440089
KEVW 240553Z AUTO 04006KT 10SM CLR 11/03 A3014 RMK AO2 SLP121 T01060028 10222 20100 51021
KEVW 240453Z AUTO 02006KT 10SM CLR 12/03 A3013 RMK AO2 SLP114 T01170028
KEVW 240353Z AUTO 35010KT 10SM CLR 12/03 A3010 RMK AO2 SLP109 T01170033
KEVW 240253Z AUTO 34019G26KT 10SM CLR 14/03 A3007 RMK AO2 PK WND 32026/0215 SLP101 T01440028 53015
KEVW 240153Z AUTO 31018G24KT 10SM CLR 18/M02 A3004 RMK AO2 PK WND 31029/0111 SLP090 T01831017
KEVW 240053Z AUTO 29017KT 10SM CLR 21/M01 A3002 RMK AO2 PK WND 27037/2356 SLP081 T02111011
KEVW 232353Z AUTO 27024G33KT 10SM CLR 22/M02 A3001 RMK AO2 PK WND 25035/2254 SLP079 T02171022 10244 20211 58002
KEVW 232253Z AUTO 25027G35KT 10SM SCT085 21/00 A3002 RMK AO2 PK WND 24038/2236 SLP080 T02110000
KEVW 232153Z AUTO 26020G31KT 10SM SCT080 BKN100 23/02 A3002 RMK AO2 PK WND 26037/2106 SLP074 T02280017
KEVW 232053Z AUTO 26022G35KT 10SM FEW090 23/01 A3002 RMK AO2 PK WND 25035/2051 SLP074 T02330011 56008
KEVW 231953Z AUTO 26022G28KT 10SM BKN090 BKN110 22/01 A3002 RMK AO2 PK WND 27033/1855 SLP076 T02170011
KEVW 231853Z AUTO 27023G29KT 10SM SCT090 23/01 A3004 RMK AO2 PK WND 26031/1817 SLP079 T02280006